Latest Weather Observations for Edenhope

IDV60801

Issued at 9:52 pm EST Thursday 20 June 2019 (issued every 10 minutes, with the page automatically refreshed every 10 minutes)

About weather observations | Map of weather stations | Latest weather observations for VIC | Other Formats
Station Details ID: 079099 Name: EDENHOPE AIRPORT Lat: -37.02 Lon: 141.27 Height: 155.0 m
Data from the previous 72 hours. | See also: Recent months at Edenhope
Date/Time
EST
Temp
°C
App
Temp
°C
Dew
Point
°C
Rel
Hum
%
Delta-T
°C
Wind Press
QNH
hPa
Press
MSL
hPa
Rain since
9am
mm
Dir  Spd
km/h
Gust
km/h
Spd
kts
Gust
kts
20/09:30pm 2.8 1.0 0.9 87 0.7 CALM 0 0 0 0 - - 0.2
20/09:00pm 3.1 1.3 1.0 86 0.8 CALM 0 0 0 0 - - 0.2
20/08:30pm 3.6 1.0 1.2 84 0.9 SSE 4 6 2 3 - - 0.2
20/08:00pm 4.4 1.9 1.3 80 1.2 SSE 4 6 2 3 - - 0.2
20/07:30pm 4.9 2.4 1.6 79 1.3 S 4 6 2 3 - - 0.2
20/07:00pm 5.2 2.7 1.7 78 1.4 SSW 4 4 2 2 - - 0.2
20/06:30pm 6.4 4.6 1.3 70 2.1 CALM 0 0 0 0 - - 0.0
20/06:00pm 7.3 4.7 1.0 64 2.5 SW 4 6 2 3 - - 0.0
20/05:30pm 8.9 7.2 1.6 60 3.0 CALM 0 2 0 1 - - 0.0
20/05:00pm 10.7 8.2 1.8 54 3.8 WSW 4 9 2 5 - - 0.0
20/04:30pm 10.5 7.1 1.6 54 3.8 WSW 9 13 5 7 - - 0.0
20/04:00pm 11.8 8.6 0.9 47 4.6 WNW 7 13 4 7 - - 0.0
20/03:30pm 12.1 9.0 0.2 44 4.9 W 6 9 3 5 - - 0.0
20/03:00pm 12.2 9.1 0.3 44 5.0 W 6 9 3 5 - - 0.0
20/02:30pm 12.2 9.1 0.0 43 5.1 WNW 6 9 3 5 - - 0.0
20/02:00pm 11.7 8.6 -0.1 44 4.9 NNW 6 7 3 4 - - 0.0
20/01:30pm 11.7 8.5 -0.4 43 4.9 NW 6 9 3 5 - - 0.0
20/01:00pm 11.2 8.1 0.3 47 4.5 WSW 6 9 3 5 - - 0.0
20/12:30pm 11.3 8.5 2.3 54 3.9 WNW 6 9 3 5 - - 0.0
20/12:00pm 10.6 7.6 0.9 51 4.0 WNW 6 9 3 5 - - 0.0
20/11:30am 10.7 9.2 4.8 67 2.7 NW 2 4 1 2 - - 0.0
20/11:00am 8.7 8.0 7.0 89 0.8 CALM 0 0 0 0 - - 0.0
20/10:30am 7.5 6.9 7.4 99 0.0 CALM 0 0 0 0 - - 0.0
20/10:00am 6.2 5.3 6.2 100 0.0 CALM 0 0 0 0 - - 0.0
20/09:30am 5.0 3.9 5.0 100 0.0 CALM 0 2 0 1 - - 0.0
20/09:00am 1.5 -0.6 1.4 99 0.0 E 2 4 1 2 - - 0.0
20/08:30am 0.9 -1.0 0.8 99 0.0 CALM 0 0 0 0 - - 0.0
20/08:00am 0.4 -2.3 0.3 99 0.0 E 4 4 2 2 - - 0.0
20/07:30am 0.1 -1.9 0.0 99 0.0 CALM 0 2 0 1 - - 0.0
20/07:00am 0.7 -1.2 0.6 99 0.0 CALM 0 0 0 0 - - 0.0
20/06:30am 0.6 -1.7 0.3 98 0.1 E 2 2 1 1 - - 0.0
20/06:00am 0.4 -2.3 0.1 98 0.1 E 4 4 2 2 - - 0.0
20/05:30am 0.8 -1.1 0.5 98 0.1 CALM 0 0 0 0 - - 0.0
20/05:00am 0.4 -1.6 0.1 98 0.1 CALM 0 0 0 0 - - 0.0
20/04:30am 1.6 -0.2 1.5 99 0.0 CALM 0 0 0 0 - - 0.0
20/04:00am 1.5 -0.3 1.2 98 0.1 CALM 0 0 0 0 - - 0.0
20/03:30am 1.9 0.2 1.6 98 0.1 CALM 0 0 0 0 - - 0.0
20/03:00am 1.6 -0.2 1.3 98 0.1 CALM 0 0 0 0 - - 0.0
20/02:30am 2.2 0.5 1.9 98 0.1 CALM 0 0 0 0 - - 0.0
20/02:00am 2.1 0.4 1.7 97 0.2 CALM 0 0 0 0 - - 0.0
20/01:30am 1.5 -0.3 1.1 97 0.2 CALM 0 0 0 0 - - 0.0
20/01:00am 2.6 -0.2 2.3 98 0.1 E 6 7 3 4 - - 0.0
20/12:30am 2.7 0.7 2.3 97 0.2 SE 2 4 1 2 - - 0.0
20/12:00am 2.5 0.4 1.9 96 0.2 SE 2 2 1 1 - - 0.0
 
Date/Time
EST
Temp
°C
App
Temp
°C
Dew
Point
°C
Rel
Hum
%
Delta-T
°C
Wind Press
QNH
hPa
Press
MSL
hPa
Rain since
9am
mm
Dir  Spd
km/h
Gust
km/h
Spd
kts
Gust
kts
19/11:30pm 2.7 1.0 2.1 96 0.2 CALM 0 0 0 0 - - 0.0
19/11:00pm 3.1 1.5 2.4 95 0.3 CALM 0 2 0 1 - - 0.0
19/10:30pm 3.5 2.0 2.8 95 0.3 CALM 0 0 0 0 - - 0.0
19/10:00pm 3.7 2.1 2.7 93 0.4 CALM 0 0 0 0 - - 0.0
19/09:30pm 4.7 3.3 3.4 91 0.5 CALM 0 0 0 0 - - 0.0
19/09:00pm 4.9 3.5 3.4 90 0.6 CALM 0 0 0 0 - - 0.0
19/08:30pm 5.6 3.5 3.9 89 0.7 E 4 4 2 2 - - 0.0
19/08:00pm 6.1 4.7 3.6 84 1.1 CALM 0 0 0 0 - - 0.0
19/07:30pm 6.0 4.7 4.0 87 0.9 CALM 0 4 0 2 - - 0.0
19/07:00pm 6.3 5.0 4.1 86 0.9 CALM 0 0 0 0 - - 0.0
19/06:30pm 6.8 5.4 3.6 80 1.4 CALM 0 0 0 0 - - 0.0
19/06:00pm 7.6 6.2 3.8 77 1.6 CALM 0 2 0 1 - - 0.0
19/05:30pm 8.0 6.7 4.2 77 1.7 CALM 0 0 0 0 - - 0.0
19/05:00pm 8.3 6.1 3.4 71 2.1 WSW 4 4 2 2 - - 0.0
19/04:30pm 9.4 7.2 3.4 66 2.6 S 4 4 2 2 - - 0.0
19/04:00pm 10.1 7.8 2.9 61 3.1 SSE 4 7 2 4 - - 0.0
19/03:30pm 10.9 8.7 3.2 59 3.4 SSW 4 9 2 5 - - 0.0
19/03:00pm 10.8 8.2 3.4 60 3.3 SW 6 9 3 5 - - 0.0
19/02:30pm 11.3 8.5 3.3 58 3.5 W 7 15 4 8 - - 0.0
19/02:00pm 11.1 8.5 4.3 63 3.1 SW 7 13 4 7 - - 0.0
19/01:30pm 10.9 8.4 4.6 65 2.9 W 7 20 4 11 - - 0.0
19/01:00pm 10.3 8.3 4.5 67 2.6 W 4 9 2 5 - - 0.0
19/12:30pm 10.2 8.2 4.6 68 2.5 SW 4 7 2 4 - - 0.0
19/12:00pm 9.8 7.9 4.8 71 2.3 SW 4 7 2 4 - - 0.0
19/11:30am 8.7 6.8 5.1 78 1.6 WSW 4 6 2 3 - - 0.0
19/11:00am 7.4 5.3 5.9 90 0.7 W 6 7 3 4 - - 0.0
19/10:30am 6.4 4.8 6.4 100 0.0 WNW 4 6 2 3 - - 0.0
19/10:00am 5.0 3.5 5.0 100 0.0 W 2 4 1 2 - - 0.0
19/09:30am 4.0 2.3 4.0 100 0.0 NW 2 4 1 2 - - 0.0
19/09:00am 0.5 -1.4 0.5 100 0.0 CALM 0 0 0 0 - - 1.2
19/08:30am -0.3 -2.3 -0.4 99 0.0 CALM 0 0 0 0 - - 1.0
19/08:00am -0.7 -2.8 -0.8 99 0.0 CALM 0 0 0 0 - - 1.0
19/07:30am -0.7 -2.8 -1.0 98 0.1 CALM 0 0 0 0 - - 1.0
19/07:00am -0.5 -2.6 -0.8 98 0.1 CALM 0 0 0 0 - - 1.0
19/06:30am 0.0 -2.0 -0.3 98 0.1 CALM 0 0 0 0 - - 1.0
19/06:00am -0.3 -2.7 -0.6 98 0.1 WNW 2 4 1 2 - - 1.0
19/05:30am 0.1 -1.9 -0.2 98 0.1 CALM 0 0 0 0 - - 1.0
19/05:00am -0.2 -3.0 -0.5 98 0.1 WNW 4 6 2 3 - - 1.0
19/04:30am 0.4 -1.6 0.1 98 0.1 CALM 0 0 0 0 - - 1.0
19/04:00am 2.3 0.6 2.0 98 0.1 CALM 0 0 0 0 - - 1.0
19/03:30am 2.5 0.1 2.2 98 0.1 SSW 4 6 2 3 - - 1.0
19/03:00am 2.0 -0.1 1.7 98 0.1 WSW 2 2 1 1 - - 1.0
19/02:30am 1.6 -0.2 1.2 97 0.2 CALM 0 2 0 1 - - 1.0
19/02:00am 1.8 -0.3 1.4 97 0.2 NW 2 4 1 2 - - 1.0
19/01:30am 2.5 0.5 2.1 97 0.2 NW 2 4 1 2 - - 1.0
19/01:00am 1.8 0.0 1.2 96 0.2 CALM 0 0 0 0 - - 1.0
19/12:30am 1.7 -0.1 1.1 96 0.2 CALM 0 0 0 0 - - 1.0
19/12:00am 2.3 0.6 1.7 96 0.2 CALM 0 0 0 0 - - 1.0
 
Date/Time
EST
Temp
°C
App
Temp
°C
Dew
Point
°C
Rel
Hum
%
Delta-T
°C
Wind Press
QNH
hPa
Press
MSL
hPa
Rain since
9am
mm
Dir  Spd
km/h
Gust
km/h
Spd
kts
Gust
kts
18/11:30pm 2.5 0.4 1.8 95 0.3 W 2 4 1 2 - - 1.0
18/11:00pm 2.4 0.6 1.5 94 0.3 CALM 0 0 0 0 - - 1.0
18/10:30pm 3.4 1.4 2.5 94 0.4 WSW 2 2 1 1 - - 1.0
18/10:00pm 3.6 1.3 2.6 93 0.4 SW 4 4 2 2 - - 1.0
18/09:30pm 3.4 1.7 2.1 91 0.5 CALM 0 0 0 0 - - 1.0
18/09:00pm 3.6 1.9 2.1 90 0.6 CALM 0 2 0 1 - - 1.0
18/08:30pm 4.5 2.9 2.5 87 0.8 CALM 0 0 0 0 - - 1.0
18/08:00pm 5.2 3.0 3.1 86 0.9 WSW 4 4 2 2 - - 1.0
18/07:30pm 5.1 2.7 2.3 82 1.1 WSW 4 6 2 3 - - 1.0
18/07:00pm 6.4 4.6 3.2 80 1.4 SW 2 6 1 3 - - 1.0
18/06:30pm 6.4 4.2 3.2 80 1.4 WSW 4 6 2 3 - - 1.0
18/06:00pm 6.9 4.3 3.2 77 1.6 SW 6 7 3 4 - - 1.0
18/05:30pm 7.8 5.2 3.3 73 1.9 SW 6 9 3 5 - - 1.0
18/05:00pm 9.0 5.9 3.4 68 2.4 SW 9 13 5 7 - - 1.0
18/04:30pm 9.7 5.1 3.9 67 2.6 SW 17 26 9 14 - - 1.0
18/04:00pm 9.9 6.8 3.6 65 2.8 SSW 9 17 5 9 - - 1.0
18/03:30pm 9.7 5.0 3.4 65 2.8 SSW 17 30 9 16 - - 1.0
18/03:00pm 11.5 6.2 2.8 55 3.8 SW 20 32 11 17 - - 1.0
18/02:30pm 11.3 6.8 4.3 62 3.2 SSW 17 30 9 16 - - 1.0
18/02:00pm 11.1 8.2 6.6 74 2.1 W 11 17 6 9 - - 1.0
18/01:30pm 9.6 5.9 6.1 79 1.6 WSW 15 20 8 11 - - 1.0
18/01:00pm 11.4 7.4 6.7 73 2.2 SW 17 24 9 13 - - 0.6
18/12:30pm 10.1 6.5 6.6 79 1.7 SW 15 19 8 10 - - 0.6
18/12:00pm 8.9 6.0 6.7 86 1.0 SSW 11 15 6 8 - - 0.6
18/11:30am 9.7 5.7 6.8 82 1.4 SW 17 24 9 13 - - 0.6
18/11:00am 9.2 6.1 7.2 87 0.9 WSW 13 20 7 11 - - 0.6
18/10:30am 8.4 6.4 7.2 92 0.6 SW 7 13 4 7 - - 0.6
18/10:00am 8.1 4.1 6.6 90 0.7 SW 17 28 9 15 - - 0.2
18/09:30am 7.9 5.2 7.3 96 0.3 WSW 11 15 6 8 - - 0.2
18/09:00am 7.7 5.0 7.4 98 0.1 WSW 11 19 6 10 - - 4.4
18/08:30am 7.5 5.5 7.2 98 0.1 W 7 11 4 6 - - 4.2
18/08:00am 7.0 5.1 6.6 97 0.2 W 6 9 3 5 - - 4.2
18/07:30am 7.4 5.0 7.0 97 0.2 WSW 9 13 5 7 - - 4.2
18/07:00am 7.1 5.0 6.5 96 0.3 WSW 7 13 4 7 - - 4.2
18/06:30am 7.7 5.0 7.3 97 0.2 W 11 17 6 9 - - 4.2
18/06:00am 7.9 4.9 7.6 98 0.1 W 13 19 7 10 - - 4.2
18/05:30am 8.2 5.7 8.1 99 0.0 WNW 11 15 6 8 - - 4.2
18/05:00am 8.2 5.7 8.1 99 0.0 WNW 11 17 6 9 - - 4.2
18/04:30am 8.7 6.7 8.6 99 0.0 WNW 9 13 5 7 - - 4.0
18/04:00am 8.8 6.8 8.5 98 0.1 WNW 9 15 5 8 - - 4.0
18/03:30am 8.8 6.3 8.4 97 0.2 WNW 11 15 6 8 - - 4.0
18/03:00am 8.9 6.8 8.3 96 0.3 WNW 9 15 5 8 - - 3.8
18/02:30am 9.0 6.5 8.1 94 0.4 NW 11 17 6 9 - - 2.6
18/02:00am 9.1 6.9 7.7 91 0.7 NW 9 13 5 7 - - 1.2
18/01:30am 9.6 7.2 7.2 85 1.1 NW 9 17 5 9 - - 0.0
18/01:00am 10.4 6.7 6.5 77 1.8 NW 15 20 8 11 - - 0.0
18/12:30am 10.5 6.1 6.5 76 1.9 NNW 19 28 10 15 - - 0.0
18/12:00am 10.6 6.0 5.8 72 2.2 NNW 19 24 10 13 - - 0.0
 
Date/Time
EST
Temp
°C
App
Temp
°C
Dew
Point
°C
Rel
Hum
%
Delta-T
°C
Wind Press
QNH
hPa
Press
MSL
hPa
Rain since
9am
mm
Dir  Spd
km/h
Gust
km/h
Spd
kts
Gust
kts
17/11:30pm 10.6 6.5 6.0 73 2.2 NNW 17 28 9 15 - - 0.0
17/11:00pm 10.5 6.4 6.1 74 2.1 NNW 17 28 9 15 - - 0.0
17/10:30pm 10.7 6.7 6.5 75 2.0 NNW 17 24 9 13 - - 0.0
17/10:00pm 10.9 7.6 6.6 75 2.0 N 13 20 7 11 - - 0.0

Other formats

Comma delimited format used in spreadsheet applications
http://www.bom.gov.au/fwo/IDV60801/IDV60801.95832.axf

JavaScript Object Notation format (JSON) in row-major order
http://www.bom.gov.au/fwo/IDV60801/IDV60801.95832.json

Data quality

Most of these data are generated automatically and are frequently updated. Quality checks on data are not normally performed. It is possible for incorrect values to appear. Refer to information at About Latest Weather Observations and please check the disclaimer before using these data.